createdAt,value
2022-08-26T00:01:29.653Z,47.44
2022-08-26T00:03:59.092Z,47.52
2022-08-26T00:06:28.044Z,47.66
2022-08-26T00:08:56.708Z,47.29
2022-08-26T00:11:26.920Z,47.76
2022-08-26T00:13:55.619Z,47.18
2022-08-26T00:16:28.163Z,47.44
2022-08-26T00:18:57.591Z,47.37
2022-08-26T00:21:26.658Z,47.84
2022-08-26T00:23:55.752Z,47.41
2022-08-26T00:26:24.830Z,47.60
2022-08-26T00:28:57.648Z,48.05
2022-08-26T00:31:27.886Z,47.72
2022-08-26T00:33:59.829Z,47.61
2022-08-26T00:36:29.775Z,48.07
2022-08-26T00:38:58.556Z,47.83
2022-08-26T00:41:27.161Z,48.14
2022-08-26T00:43:56.247Z,47.58
2022-08-26T00:46:32.306Z,47.72
2022-08-26T00:49:12.034Z,47.92
2022-08-26T00:51:48.837Z,47.83
2022-08-26T00:54:20.497Z,47.72
2022-08-26T00:56:56.095Z,47.59
2022-08-26T00:59:26.352Z,47.69
2022-08-26T01:01:58.095Z,47.45
2022-08-26T01:04:27.280Z,48.08
2022-08-26T01:06:56.471Z,47.76
2022-08-26T01:09:25.284Z,47.60
2022-08-26T01:11:57.568Z,47.66
2022-08-26T01:14:29.940Z,47.71
2022-08-26T01:17:02.136Z,47.52
2022-08-26T01:19:39.960Z,48.08
2022-08-26T01:22:13.720Z,48.20
2022-08-26T01:24:44.360Z,47.66
2022-08-26T01:27:17.660Z,47.89
2022-08-26T01:29:48.827Z,48.00
2022-08-26T01:32:23.347Z,47.51
2022-08-26T01:34:52.742Z,48.33
2022-08-26T01:37:24.811Z,48.59
2022-08-26T01:39:56.820Z,47.82
2022-08-26T01:42:28.551Z,48.00
2022-08-26T01:45:02.051Z,48.38
2022-08-26T01:47:34.696Z,48.39
2022-08-26T01:50:07.036Z,47.98
2022-08-26T01:52:40.684Z,48.31
2022-08-26T01:55:15.449Z,48.33
2022-08-26T01:58:05.744Z,47.81
2022-08-26T02:00:35.614Z,48.20
2022-08-26T02:03:21.513Z,48.20
2022-08-26T02:05:56.496Z,47.84
2022-08-26T02:08:32.108Z,48.31
2022-08-26T02:11:02.931Z,47.84
2022-08-26T02:13:34.336Z,48.09
2022-08-26T02:16:04.008Z,48.26
2022-08-26T02:18:38.315Z,48.21
2022-08-26T02:21:08.598Z,48.00
2022-08-26T02:23:37.311Z,47.73
2022-08-26T02:26:12.053Z,47.82
2022-08-26T02:28:49.838Z,47.90
2022-08-26T02:31:18.593Z,48.06
2022-08-26T02:33:47.421Z,48.44
2022-08-26T02:36:20.777Z,48.18
2022-08-26T02:38:49.723Z,48.65
2022-08-26T02:41:21.823Z,48.52
2022-08-26T02:43:51.810Z,48.56
2022-08-26T02:46:21.577Z,48.83
2022-08-26T02:48:57.303Z,48.18
2022-08-26T02:51:26.779Z,48.29
2022-08-26T02:53:55.554Z,48.54
2022-08-26T02:56:25.928Z,48.61
2022-08-26T02:58:56.084Z,48.42
2022-08-26T03:01:28.230Z,48.25
2022-08-26T03:03:57.695Z,48.08
2022-08-26T03:06:26.804Z,48.31
2022-08-26T03:08:55.910Z,48.47
2022-08-26T03:11:29.616Z,48.22
2022-08-26T03:14:01.801Z,48.43
2022-08-26T03:16:34.037Z,48.17
2022-08-26T03:19:03.577Z,48.33
2022-08-26T03:21:33.354Z,48.48
2022-08-26T03:24:01.957Z,48.25
2022-08-26T03:26:32.777Z,48.06
2022-08-26T03:29:18.424Z,48.60
2022-08-26T03:31:47.347Z,48.17
2022-08-26T03:34:16.520Z,48.56
2022-08-26T03:36:44.976Z,48.26
2022-08-26T03:39:15.224Z,48.65
2022-08-26T03:41:45.568Z,48.62
2022-08-26T03:44:14.533Z,48.86
2022-08-26T03:46:43.981Z,48.44
2022-08-26T03:49:12.646Z,48.84
2022-08-26T03:51:43.791Z,48.32
2022-08-26T03:54:13.233Z,48.71
2022-08-26T03:56:41.721Z,48.76
2022-08-26T03:59:12.033Z,48.95
2022-08-26T04:01:40.661Z,48.78
2022-08-26T04:04:09.278Z,48.57
2022-08-26T04:06:44.738Z,48.73
2022-08-26T04:09:16.108Z,48.84
2022-08-26T04:11:45.947Z,48.92
2022-08-26T04:14:22.548Z,49.13
2022-08-26T04:16:52.120Z,48.78
2022-08-26T04:19:22.072Z,48.70
2022-08-26T04:21:53.353Z,48.57
2022-08-26T04:24:23.806Z,48.82
2022-08-26T04:26:52.685Z,48.78
2022-08-26T04:29:25.401Z,48.86
2022-08-26T04:31:56.063Z,48.39
2022-08-26T04:34:28.369Z,48.99
2022-08-26T04:36:58.186Z,48.87
2022-08-26T04:39:27.970Z,48.51
2022-08-26T04:41:57.800Z,48.35
2022-08-26T04:44:30.858Z,48.33
2022-08-26T04:46:59.719Z,49.04
2022-08-26T04:49:28.600Z,48.80
2022-08-26T04:52:05.072Z,48.53
2022-08-26T04:54:33.936Z,48.35
2022-08-26T04:57:02.593Z,48.25
2022-08-26T04:59:35.962Z,47.93
2022-08-26T05:02:08.071Z,48.13
2022-08-26T05:04:37.710Z,47.57
2022-08-26T05:07:07.855Z,47.81
2022-08-26T05:09:40.440Z,47.59
2022-08-26T05:12:09.330Z,47.28
2022-08-26T05:14:39.295Z,47.23
2022-08-26T05:17:08.626Z,46.85
2022-08-26T05:19:37.448Z,46.69
2022-08-26T05:22:13.194Z,47.12
2022-08-26T05:24:43.258Z,46.34
2022-08-26T05:27:12.587Z,47.16
2022-08-26T05:29:42.635Z,46.54
2022-08-26T05:32:12.913Z,46.66
2022-08-26T05:34:43.012Z,46.88
2022-08-26T05:37:11.550Z,46.22
2022-08-26T05:39:43.543Z,46.25
2022-08-26T05:42:20.089Z,45.67
2022-08-26T05:44:56.081Z,45.58
2022-08-26T05:47:25.328Z,45.83
2022-08-26T05:49:55.411Z,45.82
2022-08-26T05:52:25.889Z,45.98
2022-08-26T05:54:55.153Z,45.87
2022-08-26T05:57:23.650Z,45.38
2022-08-26T05:59:52.753Z,45.47
2022-08-26T06:02:22.866Z,45.39
2022-08-26T06:04:51.844Z,44.90
2022-08-26T06:07:40.542Z,44.68
2022-08-26T06:10:31.580Z,44.10
2022-08-26T06:13:04.551Z,44.07
2022-08-26T06:15:43.141Z,44.25
2022-08-26T06:18:15.235Z,43.90
2022-08-26T06:20:54.596Z,45.55
2022-08-26T06:23:45.831Z,44.55
2022-08-26T06:26:15.634Z,44.21
2022-08-26T06:28:45.513Z,43.38
2022-08-26T06:31:15.412Z,42.87
2022-08-26T06:33:46.213Z,42.99
2022-08-26T06:36:19.679Z,43.83
2022-08-26T06:38:51.339Z,43.45
2022-08-26T06:41:21.007Z,43.10
2022-08-26T06:43:49.714Z,42.92
2022-08-26T06:46:20.697Z,43.45
2022-08-26T06:48:51.515Z,42.75
2022-08-26T06:51:22.658Z,42.51
2022-08-26T06:53:54.471Z,42.08
2022-08-26T06:56:26.558Z,41.70
2022-08-26T06:58:55.837Z,42.84
2022-08-26T07:01:26.919Z,44.52
2022-08-26T07:03:58.813Z,43.32
2022-08-26T07:06:29.247Z,42.79
2022-08-26T07:09:04.073Z,42.28
2022-08-26T07:11:34.376Z,43.21
2022-08-26T07:14:03.119Z,43.40
2022-08-26T07:16:31.969Z,42.48
2022-08-26T07:19:03.615Z,43.85
2022-08-26T07:21:41.605Z,43.86
2022-08-26T07:24:11.530Z,43.98
2022-08-26T07:26:43.143Z,43.16
2022-08-26T07:29:12.789Z,43.33
2022-08-26T07:31:42.482Z,43.83
2022-08-26T07:34:13.964Z,43.42
2022-08-26T07:36:42.882Z,43.32
2022-08-26T07:39:11.322Z,42.90
2022-08-26T07:41:39.876Z,43.76
2022-08-26T07:44:08.777Z,46.01
2022-08-26T07:46:38.748Z,46.08
2022-08-26T07:49:08.176Z,45.16
2022-08-26T07:51:39.181Z,43.83
2022-08-26T07:54:08.223Z,43.30
2022-08-26T07:56:36.729Z,43.10
2022-08-26T07:59:13.801Z,44.85
2022-08-26T08:01:44.882Z,45.35
2022-08-26T08:04:14.476Z,46.68
2022-08-26T08:06:45.345Z,44.55
2022-08-26T08:09:16.042Z,45.23
2022-08-26T08:11:45.883Z,43.94
2022-08-26T08:14:18.237Z,44.21
2022-08-26T08:16:54.684Z,43.98
2022-08-26T08:19:36.954Z,43.35
2022-08-26T08:22:17.335Z,42.45
2022-08-26T08:24:50.009Z,42.63
2022-08-26T08:27:24.129Z,41.77
2022-08-26T08:29:54.367Z,41.39
2022-08-26T08:32:24.305Z,40.59
2022-08-26T08:34:53.009Z,39.67
2022-08-26T08:37:23.347Z,39.79
2022-08-26T08:39:52.445Z,38.51
2022-08-26T08:42:38.870Z,38.31
2022-08-26T08:45:12.267Z,38.92
2022-08-26T08:47:45.644Z,38.72
2022-08-26T08:50:23.906Z,38.46
2022-08-26T08:53:03.868Z,39.36
2022-08-26T08:55:48.813Z,39.12
2022-08-26T08:58:23.407Z,40.95
2022-08-26T09:00:59.798Z,40.06
2022-08-26T09:03:45.811Z,40.55
2022-08-26T09:06:18.928Z,40.38
2022-08-26T09:08:50.808Z,39.57
2022-08-26T09:11:21.117Z,39.85
2022-08-26T09:13:52.425Z,39.64
2022-08-26T09:16:25.379Z,39.09
2022-08-26T09:19:04.836Z,39.87
2022-08-26T09:21:34.097Z,39.94
2022-08-26T09:24:04.497Z,39.62
2022-08-26T09:26:45.559Z,42.65
2022-08-26T09:29:24.276Z,42.05
2022-08-26T09:31:53.993Z,40.85
2022-08-26T09:34:25.549Z,42.00
2022-08-26T09:36:56.147Z,42.49
2022-08-26T09:39:44.126Z,43.47
2022-08-26T09:42:22.406Z,44.12
2022-08-26T09:44:57.417Z,41.89
2022-08-26T09:47:31.809Z,43.10
2022-08-26T09:50:09.816Z,45.19
2022-08-26T09:52:42.810Z,44.62
2022-08-26T09:55:21.624Z,43.36
2022-08-26T09:57:52.657Z,42.86
2022-08-26T10:00:27.473Z,43.93
2022-08-26T10:02:58.114Z,44.34
2022-08-26T10:05:44.009Z,41.92
2022-08-26T10:08:26.414Z,41.04
2022-08-26T10:10:58.214Z,40.35
2022-08-26T10:13:33.740Z,40.50
2022-08-26T10:16:12.051Z,39.83
2022-08-26T10:18:46.103Z,40.00
2022-08-26T10:21:19.437Z,41.37
2022-08-26T10:23:52.195Z,40.18
2022-08-26T10:26:29.131Z,39.62
2022-08-26T10:29:07.274Z,39.90
2022-08-26T10:31:40.966Z,39.44
2022-08-26T10:34:12.369Z,36.49
2022-08-26T10:37:14.511Z,37.43
2022-08-26T10:39:49.709Z,37.04
2022-08-26T10:42:33.481Z,36.33
2022-08-26T10:45:12.030Z,37.79
2022-08-26T10:47:49.768Z,37.64
2022-08-26T10:50:19.383Z,38.47
2022-08-26T10:53:01.222Z,39.09
2022-08-26T10:55:37.348Z,37.32
2022-08-26T10:58:26.662Z,36.78
2022-08-26T11:01:22.857Z,38.36
2022-08-26T11:04:04.101Z,37.59
2022-08-26T11:06:33.151Z,36.71
2022-08-26T11:09:08.541Z,35.52
2022-08-26T11:11:46.945Z,34.32
2022-08-26T11:14:53.124Z,33.91
2022-08-26T11:17:57.077Z,33.59
2022-08-26T11:20:41.866Z,34.92
2022-08-26T11:23:41.585Z,33.25
2022-08-26T11:26:32.795Z,35.37
2022-08-26T11:29:13.104Z,34.94
2022-08-26T11:31:58.718Z,34.59
2022-08-26T11:34:56.389Z,32.93
2022-08-26T11:37:33.451Z,33.18
2022-08-26T11:40:04.983Z,31.99
2022-08-26T11:42:40.596Z,31.15
2022-08-26T11:45:20.637Z,31.99
2022-08-26T11:47:52.167Z,30.79
2022-08-26T11:50:26.034Z,29.76
2022-08-26T11:52:57.130Z,29.83
2022-08-26T11:55:26.047Z,29.45
2022-08-26T11:57:57.347Z,30.03
2022-08-26T12:00:33.491Z,29.25
2022-08-26T12:03:09.454Z,28.27
2022-08-26T12:05:44.517Z,28.23
2022-08-26T12:08:17.704Z,27.89
2022-08-26T12:10:46.628Z,28.28
2022-08-26T12:13:23.174Z,27.77
2022-08-26T12:15:57.262Z,26.30
2022-08-26T12:18:34.367Z,25.43
2022-08-26T12:21:12.661Z,24.89
2022-08-26T12:23:44.964Z,24.97
2022-08-26T12:26:22.524Z,24.72
2022-08-26T12:28:56.059Z,23.75
2022-08-26T12:31:30.206Z,25.61
2022-08-26T12:34:04.143Z,24.38
2022-08-26T12:36:37.424Z,24.51
2022-08-26T12:39:12.161Z,24.82
2022-08-26T12:41:52.996Z,23.59
2022-08-26T12:44:53.180Z,22.34
2022-08-26T12:47:28.772Z,22.12
2022-08-26T12:50:24.096Z,21.69
2022-08-26T12:52:57.483Z,23.49
2022-08-26T12:55:35.409Z,22.57
2022-08-26T12:58:26.933Z,21.70
2022-08-26T13:00:57.049Z,22.73
2022-08-26T13:03:43.903Z,22.55
2022-08-26T13:06:34.199Z,23.30
2022-08-26T13:09:06.198Z,24.25
2022-08-26T13:11:56.363Z,23.95
2022-08-26T13:14:26.045Z,23.22
2022-08-26T13:16:54.876Z,23.48
2022-08-26T13:19:26.856Z,22.84
2022-08-26T13:21:59.302Z,22.83
2022-08-26T13:24:32.256Z,23.07
2022-08-26T13:27:01.728Z,23.39
2022-08-26T13:29:30.296Z,23.64
2022-08-26T13:31:59.904Z,23.89
2022-08-26T13:34:29.349Z,23.92
2022-08-26T13:36:59.679Z,23.91
2022-08-26T13:39:28.349Z,24.36
2022-08-26T13:41:57.156Z,24.39
2022-08-26T13:44:25.825Z,22.69
2022-08-26T13:46:54.498Z,21.17
2022-08-26T13:49:23.344Z,22.13
2022-08-26T13:51:51.891Z,24.03
2022-08-26T13:54:22.166Z,25.51
2022-08-26T13:56:51.713Z,25.49
2022-08-26T13:59:20.162Z,24.38
2022-08-26T14:01:49.226Z,24.82
2022-08-26T14:04:17.941Z,23.52
2022-08-26T14:06:55.725Z,25.52
2022-08-26T14:09:25.884Z,24.84
2022-08-26T14:11:55.230Z,24.71
2022-08-26T14:14:25.069Z,24.09
2022-08-26T14:16:59.462Z,23.33
2022-08-26T14:19:30.651Z,23.26
2022-08-26T14:22:01.385Z,22.99
2022-08-26T14:24:31.373Z,22.95
2022-08-26T14:27:00.308Z,27.85
2022-08-26T14:29:28.960Z,28.53
2022-08-26T14:31:59.681Z,24.90
2022-08-26T14:34:28.698Z,23.64
2022-08-26T14:36:57.213Z,23.74
2022-08-26T14:39:26.047Z,24.06
2022-08-26T14:41:57.708Z,24.16
2022-08-26T14:44:30.590Z,24.41
2022-08-26T14:47:01.669Z,24.61
2022-08-26T14:49:31.549Z,24.88
2022-08-26T14:52:00.774Z,24.61
2022-08-26T14:54:29.464Z,25.79
2022-08-26T14:57:03.734Z,25.83
2022-08-26T14:59:35.695Z,26.31
2022-08-26T15:02:05.176Z,26.45
2022-08-26T15:04:33.995Z,26.47
2022-08-26T15:07:03.257Z,26.16
2022-08-26T15:09:34.662Z,26.22
2022-08-26T15:12:05.773Z,26.41
2022-08-26T15:14:34.366Z,27.14
2022-08-26T15:17:03.001Z,28.09
2022-08-26T15:19:31.708Z,29.26
2022-08-26T15:22:00.389Z,29.48
2022-08-26T15:24:31.594Z,29.03
2022-08-26T15:27:00.375Z,29.10
2022-08-26T15:29:30.494Z,29.19
2022-08-26T15:32:01.710Z,29.43
2022-08-26T15:34:30.213Z,29.13
2022-08-26T15:36:59.066Z,28.96
2022-08-26T15:39:27.715Z,29.36
2022-08-26T15:41:56.648Z,29.16
2022-08-26T15:44:26.920Z,29.21
2022-08-26T15:46:58.765Z,29.46
2022-08-26T15:49:27.834Z,29.46
2022-08-26T15:51:56.616Z,30.08
2022-08-26T15:54:25.517Z,29.73
2022-08-26T15:56:53.976Z,29.46
2022-08-26T15:59:23.639Z,29.58
2022-08-26T16:01:52.445Z,30.31
2022-08-26T16:04:22.537Z,29.97
2022-08-26T16:06:52.473Z,30.23
2022-08-26T16:09:23.859Z,29.83
2022-08-26T16:11:56.288Z,30.75
2022-08-26T16:14:25.723Z,30.69
2022-08-26T16:16:56.391Z,30.85
2022-08-26T16:19:26.334Z,30.72
2022-08-26T16:21:54.802Z,30.86
2022-08-26T16:24:28.462Z,30.88
2022-08-26T16:26:59.164Z,30.75
2022-08-26T16:29:28.248Z,30.81
2022-08-26T16:31:56.748Z,31.49
2022-08-26T16:34:26.550Z,31.09
2022-08-26T16:36:55.142Z,30.82
2022-08-26T16:39:23.610Z,30.55
2022-08-26T16:41:52.063Z,30.62
2022-08-26T16:44:22.205Z,30.56
2022-08-26T16:46:50.730Z,30.43
2022-08-26T16:49:28.899Z,30.19
2022-08-26T16:51:57.501Z,30.23
2022-08-26T16:54:26.245Z,30.90
2022-08-26T16:56:54.757Z,31.06
2022-08-26T16:59:25.250Z,30.54
2022-08-26T17:01:53.819Z,30.46
2022-08-26T17:04:22.423Z,30.62
2022-08-26T17:06:52.511Z,30.65
2022-08-26T17:09:21.520Z,30.68
2022-08-26T17:11:50.332Z,31.17
2022-08-26T17:14:19.263Z,30.82
2022-08-26T17:16:51.148Z,31.33
2022-08-26T17:19:20.827Z,30.87
2022-08-26T17:21:50.219Z,30.48
2022-08-26T17:24:20.278Z,30.73
2022-08-26T17:26:50.792Z,30.32
2022-08-26T17:29:24.218Z,30.69
2022-08-26T17:31:53.021Z,30.67
2022-08-26T17:34:23.138Z,31.01
2022-08-26T17:36:51.784Z,31.42
2022-08-26T17:39:21.791Z,31.72
2022-08-26T17:41:50.293Z,31.17
2022-08-26T17:44:18.803Z,31.65
2022-08-26T17:46:47.613Z,31.80
2022-08-26T17:49:16.208Z,31.74
2022-08-26T17:51:44.837Z,31.42
2022-08-26T17:54:13.591Z,32.62
2022-08-26T17:56:43.504Z,32.91
2022-08-26T17:59:12.049Z,32.19
2022-08-26T18:01:41.610Z,32.20
2022-08-26T18:04:10.268Z,32.41
2022-08-26T18:06:39.273Z,32.90
2022-08-26T18:09:07.979Z,32.87
2022-08-26T18:11:36.447Z,33.40
2022-08-26T18:14:06.272Z,33.06
2022-08-26T18:16:38.395Z,33.66
2022-08-26T18:19:07.703Z,33.58
2022-08-26T18:21:37.310Z,33.82
2022-08-26T18:24:09.113Z,33.73
2022-08-26T18:26:44.594Z,33.64
2022-08-26T18:29:14.709Z,33.86
2022-08-26T18:31:43.946Z,34.07
2022-08-26T18:34:15.397Z,33.88
2022-08-26T18:36:44.903Z,34.20
2022-08-26T18:39:15.542Z,34.42
2022-08-26T18:41:46.625Z,34.52
2022-08-26T18:44:18.525Z,34.22
2022-08-26T18:46:47.523Z,34.45
2022-08-26T18:49:18.451Z,34.80
2022-08-26T18:51:47.732Z,35.46
2022-08-26T18:54:16.961Z,35.28
2022-08-26T18:56:46.270Z,36.02
2022-08-26T18:59:16.823Z,36.22
2022-08-26T19:01:50.541Z,36.40
2022-08-26T19:04:19.730Z,36.37
2022-08-26T19:06:50.788Z,35.88
2022-08-26T19:09:21.068Z,36.42
2022-08-26T19:11:50.240Z,36.51
2022-08-26T19:14:20.336Z,36.67
2022-08-26T19:16:52.454Z,36.92
2022-08-26T19:19:23.823Z,37.01
2022-08-26T19:21:53.854Z,36.67
2022-08-26T19:24:23.168Z,36.93
2022-08-26T19:26:59.979Z,37.59
2022-08-26T19:29:31.885Z,37.47
2022-08-26T19:32:00.916Z,37.91
2022-08-26T19:34:29.676Z,37.60
2022-08-26T19:36:58.692Z,38.38
2022-08-26T19:39:28.256Z,37.98
2022-08-26T19:41:57.307Z,38.16
2022-08-26T19:44:43.538Z,37.90
2022-08-26T19:47:15.204Z,38.16
2022-08-26T19:49:43.763Z,37.82
2022-08-26T19:52:13.395Z,38.32
2022-08-26T19:54:41.867Z,37.90
2022-08-26T19:57:11.639Z,38.50
2022-08-26T19:59:40.511Z,38.50
2022-08-26T20:02:11.070Z,38.39
2022-08-26T20:04:41.975Z,38.11
2022-08-26T20:07:15.343Z,38.17
2022-08-26T20:09:47.835Z,38.14
2022-08-26T20:12:17.428Z,37.92
2022-08-26T20:14:46.177Z,38.31
2022-08-26T20:17:16.117Z,37.93
2022-08-26T20:20:03.613Z,38.17
2022-08-26T20:22:32.745Z,37.75
2022-08-26T20:25:01.629Z,38.08
2022-08-26T20:27:37.707Z,38.68
2022-08-26T20:30:09.817Z,38.73
2022-08-26T20:32:39.480Z,39.12
2022-08-26T20:35:13.096Z,39.16
2022-08-26T20:37:42.065Z,39.39
2022-08-26T20:40:13.155Z,39.26
2022-08-26T20:42:41.784Z,39.49
2022-08-26T20:45:11.003Z,39.64
2022-08-26T20:47:39.770Z,39.32
2022-08-26T20:50:10.229Z,39.82
2022-08-26T20:52:38.691Z,39.64
2022-08-26T20:55:08.223Z,39.78
2022-08-26T20:57:37.376Z,39.55
2022-08-26T21:00:07.326Z,40.15
2022-08-26T21:02:36.903Z,39.72
2022-08-26T21:05:06.176Z,40.09
2022-08-26T21:07:36.291Z,39.87
2022-08-26T21:10:05.381Z,40.69
2022-08-26T21:12:34.348Z,40.67
2022-08-26T21:15:02.950Z,40.59
2022-08-26T21:17:31.757Z,40.43
2022-08-26T21:20:00.248Z,40.48
2022-08-26T21:22:30.197Z,40.49
2022-08-26T21:25:00.319Z,40.45
2022-08-26T21:27:28.753Z,40.73
2022-08-26T21:29:57.482Z,40.58
2022-08-26T21:32:26.222Z,40.40
2022-08-26T21:34:56.724Z,40.79
2022-08-26T21:37:25.986Z,41.11
2022-08-26T21:39:55.418Z,41.25
2022-08-26T21:42:27.178Z,40.67
2022-08-26T21:44:55.908Z,41.09
2022-08-26T21:47:25.514Z,41.00
2022-08-26T21:49:55.087Z,41.67
2022-08-26T21:52:23.890Z,41.32
2022-08-26T21:54:52.364Z,41.19
2022-08-26T21:57:20.975Z,41.13
2022-08-26T21:59:52.471Z,41.07
2022-08-26T22:02:21.657Z,41.02
2022-08-26T22:04:50.388Z,40.98
2022-08-26T22:07:19.884Z,41.09
2022-08-26T22:09:48.671Z,41.94
2022-08-26T22:12:18.403Z,41.95
2022-08-26T22:14:47.143Z,41.79
2022-08-26T22:17:17.139Z,41.35
2022-08-26T22:19:46.826Z,41.31
2022-08-26T22:22:16.193Z,41.44
2022-08-26T22:24:44.812Z,41.49
2022-08-26T22:27:15.008Z,41.56
2022-08-26T22:29:43.584Z,41.67
2022-08-26T22:32:12.145Z,41.25
2022-08-26T22:34:42.655Z,41.03
2022-08-26T22:37:11.537Z,41.65
2022-08-26T22:39:40.092Z,41.55
2022-08-26T22:42:08.840Z,41.53
2022-08-26T22:44:37.631Z,41.34
2022-08-26T22:47:06.466Z,41.47
2022-08-26T22:49:35.279Z,41.52
2022-08-26T22:52:05.405Z,41.44
2022-08-26T22:54:34.007Z,41.60
2022-08-26T22:57:02.745Z,41.40
2022-08-26T22:59:31.206Z,41.59
2022-08-26T23:01:59.771Z,41.35
2022-08-26T23:04:28.728Z,41.61
2022-08-26T23:06:57.253Z,41.77
2022-08-26T23:09:27.140Z,41.42
2022-08-26T23:11:56.495Z,41.66
2022-08-26T23:14:26.426Z,41.71
2022-08-26T23:16:54.991Z,41.56
2022-08-26T23:19:24.179Z,42.15
2022-08-26T23:21:53.006Z,42.16
2022-08-26T23:24:21.498Z,42.22
2022-08-26T23:26:51.538Z,41.99
2022-08-26T23:29:19.937Z,42.15
2022-08-26T23:31:48.432Z,42.39
2022-08-26T23:34:34.271Z,42.49
2022-08-26T23:37:06.235Z,42.65
2022-08-26T23:39:36.698Z,42.86
2022-08-26T23:42:08.169Z,43.32
2022-08-26T23:44:37.088Z,43.38
2022-08-26T23:47:06.233Z,42.92
2022-08-26T23:49:35.338Z,43.01
2022-08-26T23:52:23.200Z,43.69
2022-08-26T23:54:52.867Z,43.17
2022-08-26T23:57:24.728Z,43.91
2022-08-26T23:59:54.048Z,43.56
